createdAt,value
2023-02-25T00:01:20.625Z,4.30
2023-02-25T00:03:47.723Z,4.30
2023-02-25T00:06:15.132Z,4.30
2023-02-25T00:08:46.477Z,4.30
2023-02-25T00:11:15.791Z,4.20
2023-02-25T00:13:43.917Z,4.20
2023-02-25T00:16:12.252Z,4.10
2023-02-25T00:18:41.104Z,4.00
2023-02-25T00:21:15.521Z,4.00
2023-02-25T00:23:44.802Z,4.00
2023-02-25T00:26:11.832Z,4.00
2023-02-25T00:28:40.413Z,3.90
2023-02-25T00:31:19.506Z,3.90
2023-02-25T00:33:46.830Z,3.90
2023-02-25T00:36:21.546Z,3.90
2023-02-25T00:38:49.927Z,3.90
2023-02-25T00:41:22.935Z,3.90
2023-02-25T00:43:53.614Z,3.90
2023-02-25T00:46:21.555Z,3.90
2023-02-25T00:48:49.391Z,3.90
2023-02-25T00:51:20.024Z,3.80
2023-02-25T00:53:47.381Z,3.80
2023-02-25T00:56:16.797Z,3.80
2023-02-25T00:58:45.464Z,3.80
2023-02-25T01:01:25.208Z,3.80
2023-02-25T01:03:55.577Z,3.90
2023-02-25T01:06:24.715Z,3.90
2023-02-25T01:08:51.884Z,4.00
2023-02-25T01:11:29.641Z,4.00
2023-02-25T01:14:01.831Z,4.00
2023-02-25T01:16:31.870Z,3.90
2023-02-25T01:19:03.409Z,3.90
2023-02-25T01:21:34.190Z,3.90
2023-02-25T01:24:05.198Z,3.80
2023-02-25T01:26:35.537Z,3.80
2023-02-25T01:29:06.179Z,3.80
2023-02-25T01:31:33.332Z,3.70
2023-02-25T01:34:10.413Z,3.70
2023-02-25T01:36:38.152Z,3.70
2023-02-25T01:39:05.671Z,3.70
2023-02-25T01:41:34.904Z,3.60
2023-02-25T01:44:43.169Z,3.60
2023-02-25T01:47:20.416Z,3.70
2023-02-25T01:49:47.642Z,3.60
2023-02-25T01:52:23.123Z,3.60
2023-02-25T01:54:57.647Z,3.60
2023-02-25T01:57:25.983Z,3.60
2023-02-25T01:59:54.672Z,3.70
2023-02-25T02:02:23.456Z,3.70
2023-02-25T02:04:53.266Z,3.70
2023-02-25T02:07:22.322Z,3.70
2023-02-25T02:10:01.494Z,3.80
2023-02-25T02:12:36.007Z,3.80
2023-02-25T02:15:07.077Z,3.90
2023-02-25T02:17:40.371Z,3.90
2023-02-25T02:20:23.144Z,4.00
2023-02-25T02:23:14.904Z,4.00
2023-02-25T02:25:57.021Z,4.00
2023-02-25T02:28:32.809Z,4.00
2023-02-25T02:31:06.217Z,4.00
2023-02-25T02:34:04.220Z,4.10
2023-02-25T02:37:01.190Z,4.10
2023-02-25T02:39:51.617Z,4.10
2023-02-25T02:42:37.508Z,4.10
2023-02-25T02:45:08.885Z,4.10
2023-02-25T02:47:39.490Z,4.10
2023-02-25T02:50:14.074Z,4.10
2023-02-25T02:52:46.798Z,4.20
2023-02-25T02:55:22.305Z,4.10
2023-02-25T02:57:57.007Z,4.20
2023-02-25T03:00:28.409Z,4.20
2023-02-25T03:03:02.589Z,4.20
2023-02-25T03:05:33.083Z,4.20
2023-02-25T03:08:25.435Z,4.30
2023-02-25T03:10:52.806Z,4.30
2023-02-25T03:13:21.508Z,4.30
2023-02-25T03:15:50.211Z,4.30
2023-02-25T03:18:31.174Z,4.30
2023-02-25T03:21:00.286Z,4.30
2023-02-25T03:23:31.327Z,4.30
2023-02-25T03:26:21.904Z,4.40
2023-02-25T03:28:56.323Z,4.40
2023-02-25T03:31:29.443Z,4.40
2023-02-25T03:34:24.122Z,4.40
2023-02-25T03:37:06.203Z,4.40
2023-02-25T03:39:38.693Z,4.40
2023-02-25T03:42:07.708Z,4.30
2023-02-25T03:44:48.589Z,4.30
2023-02-25T03:47:17.313Z,4.40
2023-02-25T03:49:56.498Z,4.30
2023-02-25T03:52:26.505Z,4.20
2023-02-25T03:54:59.216Z,4.20
2023-02-25T03:57:36.396Z,4.20
2023-02-25T04:00:18.791Z,4.20
2023-02-25T04:02:47.450Z,4.20
2023-02-25T04:05:16.281Z,4.10
2023-02-25T04:07:43.800Z,4.10
2023-02-25T04:10:13.742Z,4.10
2023-02-25T04:12:40.817Z,4.10
2023-02-25T04:15:08.744Z,4.20
2023-02-25T04:17:36.534Z,4.20
2023-02-25T04:20:05.513Z,4.20
2023-02-25T04:22:33.500Z,4.10
2023-02-25T04:25:01.765Z,4.10
2023-02-25T04:27:28.844Z,4.00
2023-02-25T04:29:56.015Z,4.00
2023-02-25T04:32:23.100Z,3.90
2023-02-25T04:34:50.112Z,3.80
2023-02-25T04:37:17.422Z,3.80
2023-02-25T04:39:44.553Z,3.80
2023-02-25T04:42:11.537Z,3.80
2023-02-25T04:44:38.535Z,3.80
2023-02-25T04:47:05.755Z,3.80
2023-02-25T04:49:32.826Z,3.80
2023-02-25T04:51:59.954Z,3.80
2023-02-25T04:54:26.894Z,3.80
2023-02-25T04:56:53.905Z,3.70
2023-02-25T04:59:20.888Z,3.70
2023-02-25T05:01:48.450Z,3.70
2023-02-25T05:04:15.613Z,3.70
2023-02-25T05:06:42.578Z,3.70
2023-02-25T05:09:10.536Z,3.70
2023-02-25T05:11:37.679Z,3.70
2023-02-25T05:14:07.342Z,3.80
2023-02-25T05:16:34.323Z,3.80
2023-02-25T05:19:01.272Z,3.70
2023-02-25T05:21:29.449Z,3.70
2023-02-25T05:23:56.770Z,3.70
2023-02-25T05:26:25.192Z,3.70
2023-02-25T05:28:53.731Z,3.80
2023-02-25T05:31:21.103Z,3.80
2023-02-25T05:33:48.167Z,3.80
2023-02-25T05:36:16.893Z,3.90
2023-02-25T05:38:44.716Z,3.90
2023-02-25T05:41:12.581Z,3.90
2023-02-25T05:43:40.344Z,4.00
2023-02-25T05:46:11.928Z,4.00
2023-02-25T05:48:40.990Z,4.00
2023-02-25T05:51:13.722Z,4.00
2023-02-25T05:53:42.208Z,4.00
2023-02-25T05:56:12.859Z,4.00
2023-02-25T05:58:40.344Z,4.00
2023-02-25T06:01:15.115Z,4.00
2023-02-25T06:03:43.894Z,4.00
2023-02-25T06:06:13.331Z,3.90
2023-02-25T06:08:40.656Z,3.90
2023-02-25T06:11:08.582Z,3.90
2023-02-25T06:13:35.552Z,3.90
2023-02-25T06:16:06.335Z,3.90
2023-02-25T06:18:37.074Z,3.90
2023-02-25T06:21:09.228Z,3.90
2023-02-25T06:23:38.775Z,4.00
2023-02-25T06:26:08.034Z,4.00
2023-02-25T06:28:36.259Z,4.00
2023-02-25T06:31:03.456Z,4.00
2023-02-25T06:33:31.641Z,3.90
2023-02-25T06:35:59.141Z,3.90
2023-02-25T06:38:26.293Z,3.90
2023-02-25T06:40:53.229Z,3.90
2023-02-25T06:43:20.334Z,3.90
2023-02-25T06:45:47.383Z,3.90
2023-02-25T06:48:14.421Z,3.90
2023-02-25T06:50:41.604Z,4.00
2023-02-25T06:53:09.343Z,4.00
2023-02-25T06:55:39.181Z,4.00
2023-02-25T06:58:06.679Z,4.00
2023-02-25T07:00:33.736Z,3.90
2023-02-25T07:03:03.090Z,3.90
2023-02-25T07:05:30.540Z,3.80
2023-02-25T07:07:57.575Z,3.80
2023-02-25T07:10:24.842Z,3.80
2023-02-25T07:12:53.307Z,3.90
2023-02-25T07:15:21.658Z,3.80
2023-02-25T07:17:49.230Z,3.90
2023-02-25T07:20:16.544Z,3.90
2023-02-25T07:22:43.970Z,3.90
2023-02-25T07:25:14.263Z,3.90
2023-02-25T07:27:44.524Z,4.00
2023-02-25T07:30:15.148Z,4.00
2023-02-25T07:32:43.001Z,4.00
2023-02-25T07:35:10.792Z,4.00
2023-02-25T07:37:38.213Z,4.10
2023-02-25T07:40:10.061Z,4.10
2023-02-25T07:42:37.095Z,4.10
2023-02-25T07:45:06.686Z,4.10
2023-02-25T07:47:33.624Z,4.20
2023-02-25T07:50:00.619Z,4.20
2023-02-25T07:52:28.161Z,4.20
2023-02-25T07:54:55.207Z,4.30
2023-02-25T07:57:23.661Z,4.30
2023-02-25T07:59:50.771Z,4.30
2023-02-25T08:02:17.887Z,4.40
2023-02-25T08:04:45.749Z,4.40
2023-02-25T08:07:13.187Z,4.50
2023-02-25T08:09:41.757Z,4.60
2023-02-25T08:12:09.239Z,4.70
2023-02-25T08:14:37.863Z,4.70
2023-02-25T08:17:05.348Z,4.70
2023-02-25T08:19:32.455Z,4.70
2023-02-25T08:22:00.454Z,4.70
2023-02-25T08:24:30.076Z,4.80
2023-02-25T08:26:57.370Z,4.90
2023-02-25T08:29:24.601Z,5.00
2023-02-25T08:31:52.401Z,5.00
2023-02-25T08:34:22.334Z,5.10
2023-02-25T08:36:49.311Z,5.10
2023-02-25T08:39:17.209Z,5.10
2023-02-25T08:41:44.919Z,5.10
2023-02-25T08:44:12.172Z,5.10
2023-02-25T08:46:43.086Z,5.10
2023-02-25T08:49:10.436Z,5.10
2023-02-25T08:51:38.688Z,5.10
2023-02-25T08:54:13.119Z,5.20
2023-02-25T08:56:47.442Z,5.20
2023-02-25T08:59:16.754Z,5.30
2023-02-25T09:01:48.345Z,5.40
2023-02-25T09:04:17.831Z,5.40
2023-02-25T09:06:48.563Z,5.40
2023-02-25T09:09:16.741Z,5.40
2023-02-25T09:11:45.000Z,5.30
2023-02-25T09:14:13.238Z,5.20
2023-02-25T09:16:40.743Z,5.20
2023-02-25T09:19:08.105Z,5.20
2023-02-25T09:21:36.262Z,5.20
2023-02-25T09:24:03.382Z,5.40
2023-02-25T09:26:30.498Z,5.50
2023-02-25T09:29:06.332Z,5.50
2023-02-25T09:31:40.034Z,5.60
2023-02-25T09:34:10.095Z,5.60
2023-02-25T09:36:37.417Z,5.60
2023-02-25T09:39:10.426Z,5.60
2023-02-25T09:42:03.615Z,5.60
2023-02-25T09:44:36.626Z,5.50
2023-02-25T09:47:12.592Z,5.50
2023-02-25T09:49:56.647Z,5.60
2023-02-25T09:52:58.786Z,5.60
2023-02-25T09:55:35.929Z,5.70
2023-02-25T09:58:12.093Z,5.70
2023-02-25T10:00:55.704Z,5.80
2023-02-25T10:03:35.399Z,5.90
2023-02-25T10:06:11.299Z,5.90
2023-02-25T10:08:48.530Z,5.80
2023-02-25T10:11:35.902Z,5.70
2023-02-25T10:14:24.320Z,5.60
2023-02-25T10:17:18.020Z,5.60
2023-02-25T10:20:01.003Z,5.50
2023-02-25T10:22:53.429Z,5.60
2023-02-25T10:25:28.706Z,5.60
2023-02-25T10:28:02.193Z,5.60
2023-02-25T10:32:37.533Z,5.70
2023-02-25T10:34:39.091Z,5.90
2023-02-25T10:37:33.320Z,6.20
2023-02-25T10:43:51.737Z,6.40
2023-02-25T10:46:41.936Z,6.40
2023-02-25T10:49:41.618Z,6.40
2023-02-25T10:52:57.130Z,6.10
2023-02-25T10:55:51.963Z,5.80
2023-02-25T10:58:27.771Z,5.60
2023-02-25T11:01:38.078Z,5.40
2023-02-25T11:04:12.487Z,5.40
2023-02-25T11:06:43.251Z,5.30
2023-02-25T11:09:37.220Z,5.30
2023-02-25T11:12:20.266Z,5.30
2023-02-25T11:15:13.080Z,5.20
2023-02-25T11:17:44.582Z,5.20
2023-02-25T11:20:25.714Z,5.00
2023-02-25T11:23:15.568Z,4.90
2023-02-25T11:26:03.485Z,4.90
2023-02-25T11:28:36.087Z,4.90
2023-02-25T11:31:44.296Z,5.00
2023-02-25T11:34:37.909Z,5.10
2023-02-25T11:37:43.266Z,5.20
2023-02-25T11:40:34.157Z,5.30
2023-02-25T11:43:04.004Z,5.40
2023-02-25T11:45:39.408Z,5.50
2023-02-25T11:49:02.647Z,5.60
2023-02-25T11:51:48.539Z,5.90
2023-02-25T11:54:38.589Z,6.10
2023-02-25T12:02:07.460Z,6.30
2023-02-25T12:04:58.202Z,6.50
2023-02-25T12:08:05.112Z,6.50
2023-02-25T12:11:10.201Z,6.50
2023-02-25T12:19:19.849Z,6.30
2023-02-25T12:26:16.210Z,6.50
2023-02-25T12:29:39.387Z,6.80
2023-02-25T12:32:20.236Z,6.90
2023-02-25T12:35:09.300Z,6.90
2023-02-25T12:37:59.364Z,7.00
2023-02-25T12:41:03.332Z,6.90
2023-02-25T12:44:15.317Z,6.90
2023-02-25T12:47:31.788Z,6.80
2023-02-25T12:53:59.532Z,6.60
2023-02-25T13:16:38.779Z,6.50
2023-02-25T13:19:30.691Z,6.70
2023-02-25T13:21:57.737Z,6.80
2023-02-25T13:24:42.054Z,6.70
2023-02-25T13:27:52.233Z,6.70
2023-02-25T13:30:20.533Z,6.60
2023-02-25T13:33:16.571Z,6.50
2023-02-25T13:36:13.453Z,6.50
2023-02-25T13:39:08.013Z,6.40
2023-02-25T13:46:56.527Z,6.50
2023-02-25T13:50:04.975Z,6.30
2023-02-25T13:53:13.973Z,6.30
2023-02-25T13:56:30.684Z,6.20
2023-02-25T14:06:08.744Z,6.20
2023-02-25T14:09:00.108Z,6.20
2023-02-25T14:11:57.834Z,6.20
2023-02-25T14:19:41.900Z,6.30
2023-02-25T14:27:14.919Z,6.20
2023-02-25T14:30:20.494Z,6.20
2023-02-25T14:33:20.936Z,6.20
2023-02-25T14:36:00.170Z,6.20
2023-02-25T14:39:17.047Z,6.20
2023-02-25T14:42:18.552Z,6.20
2023-02-25T14:52:38.176Z,6.20
2023-02-25T14:55:20.417Z,6.10
2023-02-25T14:58:13.571Z,6.10
2023-02-25T15:01:23.372Z,6.10
2023-02-25T15:05:06.269Z,6.10
2023-02-25T15:08:42.386Z,6.00
2023-02-25T15:11:56.140Z,6.00
2023-02-25T15:15:22.217Z,6.00
2023-02-25T15:18:10.860Z,5.90
2023-02-25T15:20:39.588Z,5.90
2023-02-25T15:23:20.778Z,5.90
2023-02-25T15:26:12.303Z,5.80
2023-02-25T15:28:41.328Z,5.90
2023-02-25T15:31:28.951Z,5.80
2023-02-25T15:34:22.832Z,5.90
2023-02-25T15:37:40.844Z,5.90
2023-02-25T15:40:16.826Z,5.90
2023-02-25T16:01:46.388Z,5.60
2023-02-25T16:08:30.338Z,5.60
2023-02-25T16:18:50.946Z,5.50
2023-02-25T16:22:58.101Z,5.50
2023-02-25T16:27:18.961Z,5.40
2023-02-25T16:30:00.123Z,5.40
2023-02-25T16:36:08.672Z,5.30
2023-02-25T16:43:33.009Z,5.20
2023-02-25T16:46:07.766Z,5.10
2023-02-25T16:53:27.966Z,5.00
2023-02-25T16:59:49.395Z,4.80
2023-02-25T17:07:37.672Z,4.70
2023-02-25T17:18:53.626Z,4.50
2023-02-25T17:21:38.235Z,4.40
2023-02-25T17:24:08.603Z,4.40
2023-02-25T17:26:39.887Z,4.30
2023-02-25T17:29:15.341Z,4.30
2023-02-25T17:31:52.262Z,4.20
2023-02-25T17:34:35.094Z,4.20
2023-02-25T17:37:06.496Z,4.10
2023-02-25T17:39:33.872Z,4.10
2023-02-25T17:42:00.933Z,4.10
2023-02-25T17:44:47.437Z,4.00
2023-02-25T17:47:24.945Z,4.00
2023-02-25T17:49:52.667Z,3.90
2023-02-25T17:52:23.562Z,3.90
2023-02-25T17:54:59.621Z,3.80
2023-02-25T17:58:09.885Z,3.80
2023-02-25T18:00:37.411Z,3.80
2023-02-25T18:03:18.290Z,3.70
2023-02-25T18:06:00.864Z,3.70
2023-02-25T18:08:31.688Z,3.70
2023-02-25T18:11:21.624Z,3.60
2023-02-25T18:13:48.862Z,3.50
2023-02-25T18:16:39.595Z,3.50
2023-02-25T18:19:41.280Z,3.50
2023-02-25T18:22:39.451Z,3.50
2023-02-25T18:25:46.901Z,3.50
2023-02-25T18:28:22.500Z,3.40
2023-02-25T18:32:01.552Z,3.40
2023-02-25T18:34:32.073Z,3.30
2023-02-25T18:36:59.468Z,3.30
2023-02-25T18:39:28.178Z,3.20
2023-02-25T18:41:55.313Z,3.20
2023-02-25T18:44:22.362Z,3.20
2023-02-25T18:46:49.554Z,3.10
2023-02-25T18:49:16.610Z,3.10
2023-02-25T18:51:43.655Z,3.10
2023-02-25T18:54:17.340Z,3.10
2023-02-25T18:56:44.459Z,3.00
2023-02-25T18:59:14.520Z,3.00
2023-02-25T19:01:42.188Z,3.00
2023-02-25T19:04:16.637Z,3.00
2023-02-25T19:06:43.892Z,3.00
2023-02-25T19:09:11.469Z,2.90
2023-02-25T19:11:38.703Z,2.90
2023-02-25T19:14:07.988Z,2.90
2023-02-25T19:16:35.045Z,2.90
2023-02-25T19:19:02.168Z,2.90
2023-02-25T19:21:29.262Z,2.90
2023-02-25T19:23:56.322Z,2.90
2023-02-25T19:26:23.785Z,2.90
2023-02-25T19:28:51.092Z,2.90
2023-02-25T19:31:18.631Z,2.80
2023-02-25T19:34:20.910Z,2.80
2023-02-25T19:39:32.330Z,2.70
2023-02-25T19:42:02.615Z,2.70
2023-02-25T19:44:35.584Z,2.70
2023-02-25T19:47:18.301Z,2.70
2023-02-25T19:49:50.878Z,2.60
2023-02-25T19:52:18.880Z,2.60
2023-02-25T19:54:46.005Z,2.60
2023-02-25T19:57:13.871Z,2.60
2023-02-25T19:59:43.447Z,2.60
2023-02-25T20:02:12.618Z,2.70
2023-02-25T20:04:40.015Z,2.70
2023-02-25T20:07:07.848Z,2.70
2023-02-25T20:10:11.416Z,2.60
2023-02-25T20:12:42.940Z,2.60
2023-02-25T20:15:13.982Z,2.50
2023-02-25T20:17:42.755Z,2.50
2023-02-25T20:20:15.820Z,2.50
2023-02-25T20:22:43.488Z,2.40
2023-02-25T20:25:13.315Z,2.40
2023-02-25T20:27:43.610Z,2.40
2023-02-25T20:30:14.871Z,2.40
2023-02-25T20:32:44.111Z,2.40
2023-02-25T20:35:20.674Z,2.30
2023-02-25T20:38:06.965Z,2.30
2023-02-25T20:40:36.450Z,2.30
2023-02-25T20:43:04.084Z,2.20
2023-02-25T20:45:34.738Z,2.20
2023-02-25T20:48:41.357Z,2.20
2023-02-25T20:51:32.425Z,2.10
2023-02-25T20:53:59.624Z,2.10
2023-02-25T20:56:30.549Z,2.00
2023-02-25T20:59:22.635Z,2.00
2023-02-25T21:01:49.909Z,2.00
2023-02-25T21:04:23.312Z,1.90
2023-02-25T21:06:50.530Z,1.90
2023-02-25T21:09:30.004Z,1.80
2023-02-25T21:12:02.152Z,1.80
2023-02-25T21:20:00.661Z,1.80
2023-02-25T21:22:58.313Z,1.70
2023-02-25T21:25:48.693Z,1.80
2023-02-25T21:28:24.893Z,1.80
2023-02-25T21:30:52.699Z,1.70
2023-02-25T21:33:21.952Z,1.70
2023-02-25T21:40:04.503Z,1.70
2023-02-25T21:43:15.408Z,1.70
2023-02-25T21:46:22.214Z,1.70
2023-02-25T21:49:01.591Z,1.70
2023-02-25T21:52:16.613Z,1.80
2023-02-25T22:00:25.906Z,1.70
2023-02-25T22:03:04.066Z,1.70
2023-02-25T22:05:31.729Z,1.70
2023-02-25T22:08:18.031Z,1.70
2023-02-25T22:12:16.818Z,1.70
2023-02-25T22:40:36.824Z,1.40
2023-02-25T22:43:06.367Z,1.30
2023-02-25T22:55:24.449Z,1.30
2023-02-25T22:57:51.739Z,1.20
2023-02-25T23:00:20.889Z,1.30
2023-02-25T23:02:48.149Z,1.30
2023-02-25T23:05:18.279Z,1.30
2023-02-25T23:07:45.464Z,1.30
2023-02-25T23:10:12.649Z,1.20
2023-02-25T23:12:39.731Z,1.20
2023-02-25T23:15:09.370Z,1.30
2023-02-25T23:17:37.758Z,1.30
2023-02-25T23:20:05.429Z,1.30
2023-02-25T23:22:34.977Z,1.30
2023-02-25T23:25:13.652Z,1.30
2023-02-25T23:27:46.248Z,1.40
2023-02-25T23:30:16.720Z,1.40
2023-02-25T23:32:53.003Z,1.50
2023-02-25T23:35:22.643Z,1.50
2023-02-25T23:37:49.920Z,1.60
2023-02-25T23:40:24.982Z,1.60
2023-02-25T23:42:55.119Z,1.60
2023-02-25T23:45:22.304Z,1.60
2023-02-25T23:47:49.351Z,1.50
2023-02-25T23:50:16.978Z,1.50
2023-02-25T23:52:45.549Z,1.50
2023-02-25T23:55:14.238Z,1.50
2023-02-25T23:57:41.955Z,1.40
